sensor_id;sensor_type;location;lat;lon;timestamp;pressure;altitude;pressure_sealevel;temperature;humidity
6144;BME280;3103;49.492;8.474;2024-02-23T00:00:49;98320.03;;;9.27;71.51
6144;BME280;3103;49.492;8.474;2024-02-23T00:03:16;98326.94;;;9.04;70.97
6144;BME280;3103;49.492;8.474;2024-02-23T00:05:42;98335.56;;;8.96;71.82
6144;BME280;3103;49.492;8.474;2024-02-23T00:08:09;98348.16;;;8.96;71.92
6144;BME280;3103;49.492;8.474;2024-02-23T00:10:36;98350.38;;;8.88;72.76
6144;BME280;3103;49.492;8.474;2024-02-23T00:13:03;98365.88;;;8.91;73.74
6144;BME280;3103;49.492;8.474;2024-02-23T00:15:30;98372.84;;;8.92;75.02
6144;BME280;3103;49.492;8.474;2024-02-23T00:17:57;98359.41;;;8.53;76.62
6144;BME280;3103;49.492;8.474;2024-02-23T00:20:24;98377.63;;;8.51;77.33
6144;BME280;3103;49.492;8.474;2024-02-23T00:22:51;98375.81;;;8.37;77.95
6144;BME280;3103;49.492;8.474;2024-02-23T00:25:18;98381.69;;;8.39;77.00
6144;BME280;3103;49.492;8.474;2024-02-23T00:27:46;98385.41;;;8.48;75.43
6144;BME280;3103;49.492;8.474;2024-02-23T00:30:13;98379.06;;;8.23;75.50
6144;BME280;3103;49.492;8.474;2024-02-23T00:32:40;98373.19;;;8.21;75.56
6144;BME280;3103;49.492;8.474;2024-02-23T00:35:07;98372.66;;;8.19;75.08
6144;BME280;3103;49.492;8.474;2024-02-23T00:37:34;98378.56;;;8.11;74.79
6144;BME280;3103;49.492;8.474;2024-02-23T00:40:03;98399.41;;;8.14;75.54
6144;BME280;3103;49.492;8.474;2024-02-23T00:42:31;98394.63;;;8.01;75.93
6144;BME280;3103;49.492;8.474;2024-02-23T00:44:57;98400.22;;;8.20;76.18
6144;BME280;3103;49.492;8.474;2024-02-23T00:47:26;98402.13;;;8.09;76.30
6144;BME280;3103;49.492;8.474;2024-02-23T00:49:53;98400.78;;;8.12;75.89
6144;BME280;3103;49.492;8.474;2024-02-23T00:52:20;98407.97;;;8.21;76.42
6144;BME280;3103;49.492;8.474;2024-02-23T00:54:47;98407.44;;;8.19;76.76
6144;BME280;3103;49.492;8.474;2024-02-23T00:57:14;98409.06;;;8.10;76.59
6144;BME280;3103;49.492;8.474;2024-02-23T00:59:41;98417.63;;;8.07;77.19
6144;BME280;3103;49.492;8.474;2024-02-23T01:02:07;98405.34;;;8.01;77.53
6144;BME280;3103;49.492;8.474;2024-02-23T01:04:34;98400.84;;;7.91;77.51
6144;BME280;3103;49.492;8.474;2024-02-23T01:07:01;98398.94;;;7.97;77.50
6144;BME280;3103;49.492;8.474;2024-02-23T01:09:28;98392.56;;;7.83;77.25
6144;BME280;3103;49.492;8.474;2024-02-23T01:11:55;98396.28;;;7.87;77.61
6144;BME280;3103;49.492;8.474;2024-02-23T01:14:22;98413.41;;;7.91;77.77
6144;BME280;3103;49.492;8.474;2024-02-23T01:16:49;98425.19;;;7.90;77.66
6144;BME280;3103;49.492;8.474;2024-02-23T01:19:15;98426.75;;;7.96;77.38
6144;BME280;3103;49.492;8.474;2024-02-23T01:21:42;98436.94;;;7.89;76.78
6144;BME280;3103;49.492;8.474;2024-02-23T01:24:09;98438.78;;;8.03;77.07
6144;BME280;3103;49.492;8.474;2024-02-23T01:26:36;98460.22;;;7.88;76.28
6144;BME280;3103;49.492;8.474;2024-02-23T01:29:08;98463.94;;;8.02;76.46
6144;BME280;3103;49.492;8.474;2024-02-23T01:31:35;98466.84;;;8.06;76.60
6144;BME280;3103;49.492;8.474;2024-02-23T01:34:01;98470.88;;;8.03;76.36
6144;BME280;3103;49.492;8.474;2024-02-23T01:36:28;98510.44;;;8.07;75.86
6144;BME280;3103;49.492;8.474;2024-02-23T01:38:55;98566.31;;;7.72;76.75
6144;BME280;3103;49.492;8.474;2024-02-23T01:41:22;98564.94;;;7.34;78.91
6144;BME280;3103;49.492;8.474;2024-02-23T01:43:49;98560.94;;;7.37;79.83
6144;BME280;3103;49.492;8.474;2024-02-23T01:46:17;98559.25;;;7.15;79.86
6144;BME280;3103;49.492;8.474;2024-02-23T01:48:45;98553.16;;;7.20;80.05
6144;BME280;3103;49.492;8.474;2024-02-23T01:51:13;98545.31;;;6.93;80.49
6144;BME280;3103;49.492;8.474;2024-02-23T01:53:40;98568.53;;;6.98;81.51
6144;BME280;3103;49.492;8.474;2024-02-23T01:56:07;98564.53;;;7.00;81.15
6144;BME280;3103;49.492;8.474;2024-02-23T01:58:39;98562.81;;;6.74;81.34
6144;BME280;3103;49.492;8.474;2024-02-23T02:01:07;98561.00;;;6.79;81.33
6144;BME280;3103;49.492;8.474;2024-02-23T02:03:33;98570.53;;;6.65;81.34
6144;BME280;3103;49.492;8.474;2024-02-23T02:06:00;98566.41;;;7.00;81.17
6144;BME280;3103;49.492;8.474;2024-02-23T02:08:27;98569.03;;;6.84;81.99
6144;BME280;3103;49.492;8.474;2024-02-23T02:10:54;98568.75;;;6.86;81.44
6144;BME280;3103;49.492;8.474;2024-02-23T02:13:21;98565.56;;;6.89;81.06
6144;BME280;3103;49.492;8.474;2024-02-23T02:15:48;98560.97;;;6.74;81.44
6144;BME280;3103;49.492;8.474;2024-02-23T02:18:15;98553.25;;;6.78;81.14
6144;BME280;3103;49.492;8.474;2024-02-23T02:20:51;98552.22;;;6.89;80.88
6144;BME280;3103;49.492;8.474;2024-02-23T02:23:19;98559.88;;;6.75;81.22
6144;BME280;3103;49.492;8.474;2024-02-23T02:25:56;98556.53;;;6.90;81.30
6144;BME280;3103;49.492;8.474;2024-02-23T02:28:24;98554.06;;;6.78;81.04
6144;BME280;3103;49.492;8.474;2024-02-23T02:30:52;98559.63;;;6.72;82.30
6144;BME280;3103;49.492;8.474;2024-02-23T02:33:22;98563.63;;;6.74;82.12
6144;BME280;3103;49.492;8.474;2024-02-23T02:35:49;98557.47;;;6.64;83.48
6144;BME280;3103;49.492;8.474;2024-02-23T02:38:19;98549.75;;;6.72;84.45
6144;BME280;3103;49.492;8.474;2024-02-23T02:40:46;98558.06;;;6.81;83.60
6144;BME280;3103;49.492;8.474;2024-02-23T02:43:13;98554.28;;;6.72;83.97
6144;BME280;3103;49.492;8.474;2024-02-23T02:45:40;98541.50;;;6.79;83.82
6144;BME280;3103;49.492;8.474;2024-02-23T02:48:07;98538.50;;;6.65;83.83
6144;BME280;3103;49.492;8.474;2024-02-23T02:50:34;98549.47;;;6.74;83.08
6144;BME280;3103;49.492;8.474;2024-02-23T02:53:01;98560.78;;;6.91;83.12
6144;BME280;3103;49.492;8.474;2024-02-23T02:55:28;98570.69;;;6.96;82.38
6144;BME280;3103;49.492;8.474;2024-02-23T02:57:54;98563.47;;;7.01;82.08
6144;BME280;3103;49.492;8.474;2024-02-23T03:00:21;98560.81;;;7.01;82.01
6144;BME280;3103;49.492;8.474;2024-02-23T03:02:48;98565.41;;;7.16;80.98
6144;BME280;3103;49.492;8.474;2024-02-23T03:05:15;98566.72;;;7.13;80.86
6144;BME280;3103;49.492;8.474;2024-02-23T03:07:42;98567.22;;;7.00;80.70
6144;BME280;3103;49.492;8.474;2024-02-23T03:10:08;98564.47;;;6.85;79.79
6144;BME280;3103;49.492;8.474;2024-02-23T03:12:35;98571.69;;;6.90;79.19
6144;BME280;3103;49.492;8.474;2024-02-23T03:15:02;98568.81;;;6.96;78.85
6144;BME280;3103;49.492;8.474;2024-02-23T03:17:30;98551.19;;;7.00;78.18
6144;BME280;3103;49.492;8.474;2024-02-23T03:19:57;98556.75;;;6.89;77.45
6144;BME280;3103;49.492;8.474;2024-02-23T03:22:24;98555.94;;;6.88;77.76
6144;BME280;3103;49.492;8.474;2024-02-23T03:24:51;98559.72;;;6.97;77.29
6144;BME280;3103;49.492;8.474;2024-02-23T03:27:19;98553.88;;;7.00;77.50
6144;BME280;3103;49.492;8.474;2024-02-23T03:29:46;98563.41;;;6.86;78.07
6144;BME280;3103;49.492;8.474;2024-02-23T03:32:12;98570.38;;;6.87;78.68
6144;BME280;3103;49.492;8.474;2024-02-23T03:34:39;98570.88;;;6.79;78.84
6144;BME280;3103;49.492;8.474;2024-02-23T03:37:07;98571.50;;;7.01;79.12
6144;BME280;3103;49.492;8.474;2024-02-23T03:39:33;98576.56;;;6.98;78.28
6144;BME280;3103;49.492;8.474;2024-02-23T03:42:00;98569.34;;;6.93;78.51
6144;BME280;3103;49.492;8.474;2024-02-23T03:44:27;98558.06;;;6.76;78.17
6144;BME280;3103;49.492;8.474;2024-02-23T03:46:54;98569.88;;;7.00;78.76
6144;BME280;3103;49.492;8.474;2024-02-23T03:49:21;98566.34;;;6.79;78.49
6144;BME280;3103;49.492;8.474;2024-02-23T03:51:48;98560.13;;;6.69;79.57
6144;BME280;3103;49.492;8.474;2024-02-23T03:54:14;98563.88;;;6.73;79.65
6144;BME280;3103;49.492;8.474;2024-02-23T03:56:42;98567.63;;;6.72;79.55
6144;BME280;3103;49.492;8.474;2024-02-23T03:59:09;98569.75;;;6.75;80.08
6144;BME280;3103;49.492;8.474;2024-02-23T04:01:38;98564.69;;;6.73;79.94
6144;BME280;3103;49.492;8.474;2024-02-23T04:04:05;98566.28;;;6.69;79.74
6144;BME280;3103;49.492;8.474;2024-02-23T04:06:33;98554.78;;;6.64;79.71
6144;BME280;3103;49.492;8.474;2024-02-23T04:09:00;98562.22;;;6.57;79.81
6144;BME280;3103;49.492;8.474;2024-02-23T04:11:27;98566.75;;;6.56;80.71
6144;BME280;3103;49.492;8.474;2024-02-23T04:13:54;98568.06;;;6.53;80.89
6144;BME280;3103;49.492;8.474;2024-02-23T04:16:24;98576.41;;;6.67;80.62
6144;BME280;3103;49.492;8.474;2024-02-23T04:18:51;98587.34;;;6.66;80.64
6144;BME280;3103;49.492;8.474;2024-02-23T04:21:18;98579.81;;;6.58;80.45
6144;BME280;3103;49.492;8.474;2024-02-23T04:23:45;98585.13;;;6.52;81.68
6144;BME280;3103;49.492;8.474;2024-02-23T04:26:12;98594.91;;;6.79;80.39
6144;BME280;3103;49.492;8.474;2024-02-23T04:28:40;98596.47;;;6.75;80.22
6144;BME280;3103;49.492;8.474;2024-02-23T04:31:10;98598.13;;;6.86;79.99
6144;BME280;3103;49.492;8.474;2024-02-23T04:33:37;98606.66;;;6.83;79.49
6144;BME280;3103;49.492;8.474;2024-02-23T04:36:04;98602.13;;;6.83;78.70
6144;BME280;3103;49.492;8.474;2024-02-23T04:38:32;98606.19;;;6.91;78.08
6144;BME280;3103;49.492;8.474;2024-02-23T04:41:04;98616.34;;;6.99;77.34
6144;BME280;3103;49.492;8.474;2024-02-23T04:43:32;98605.72;;;7.04;78.17
6144;BME280;3103;49.492;8.474;2024-02-23T04:45:59;98612.19;;;7.19;76.53
6144;BME280;3103;49.492;8.474;2024-02-23T04:48:25;98618.00;;;7.15;74.34
6144;BME280;3103;49.492;8.474;2024-02-23T04:50:52;98606.84;;;7.24;73.72
6144;BME280;3103;49.492;8.474;2024-02-23T04:53:19;98606.84;;;7.19;73.68
6144;BME280;3103;49.492;8.474;2024-02-23T04:55:46;98603.03;;;7.04;74.27
6144;BME280;3103;49.492;8.474;2024-02-23T04:58:13;98607.63;;;7.24;74.62
6144;BME280;3103;49.492;8.474;2024-02-23T05:00:40;98609.28;;;7.35;75.62
6144;BME280;3103;49.492;8.474;2024-02-23T05:03:07;98610.06;;;7.31;76.01
6144;BME280;3103;49.492;8.474;2024-02-23T05:05:38;98619.59;;;7.11;74.05
6144;BME280;3103;49.492;8.474;2024-02-23T05:08:06;98614.63;;;7.35;74.76
6144;BME280;3103;49.492;8.474;2024-02-23T05:10:33;98610.78;;;7.06;74.58
6144;BME280;3103;49.492;8.474;2024-02-23T05:13:00;98611.38;;;7.28;74.37
6144;BME280;3103;49.492;8.474;2024-02-23T05:15:26;98602.56;;;7.23;73.52
6144;BME280;3103;49.492;8.474;2024-02-23T05:17:53;98598.44;;;7.00;74.79
6144;BME280;3103;49.492;8.474;2024-02-23T05:20:20;98597.44;;;7.06;74.59
6144;BME280;3103;49.492;8.474;2024-02-23T05:22:47;98593.38;;;7.03;75.23
6144;BME280;3103;49.492;8.474;2024-02-23T05:25:14;98598.50;;;7.10;75.09
6144;BME280;3103;49.492;8.474;2024-02-23T05:27:41;98601.19;;;7.15;75.21
6144;BME280;3103;49.492;8.474;2024-02-23T05:30:09;98598.72;;;7.03;75.56
6144;BME280;3103;49.492;8.474;2024-02-23T05:32:37;98602.22;;;7.04;75.22
6144;BME280;3103;49.492;8.474;2024-02-23T05:35:04;98602.78;;;7.06;74.81
6144;BME280;3103;49.492;8.474;2024-02-23T05:37:31;98605.44;;;7.06;74.66
6144;BME280;3103;49.492;8.474;2024-02-23T05:39:58;98609.72;;;7.07;75.02
6144;BME280;3103;49.492;8.474;2024-02-23T05:42:28;98615.59;;;7.09;75.34
6144;BME280;3103;49.492;8.474;2024-02-23T05:44:55;98623.81;;;7.02;75.01
6144;BME280;3103;49.492;8.474;2024-02-23T05:47:24;98631.34;;;7.05;76.15
6144;BME280;3103;49.492;8.474;2024-02-23T05:49:51;98629.69;;;6.99;76.63
6144;BME280;3103;49.492;8.474;2024-02-23T05:52:17;98625.44;;;7.03;76.87
6144;BME280;3103;49.492;8.474;2024-02-23T05:54:44;98635.16;;;7.20;75.66
6144;BME280;3103;49.492;8.474;2024-02-23T05:57:13;98636.75;;;7.21;77.26
6144;BME280;3103;49.492;8.474;2024-02-23T05:59:40;98639.63;;;7.09;77.18
6144;BME280;3103;49.492;8.474;2024-02-23T06:02:06;98645.25;;;7.18;76.65
6144;BME280;3103;49.492;8.474;2024-02-23T06:04:33;98649.31;;;7.25;76.43
6144;BME280;3103;49.492;8.474;2024-02-23T06:07:00;98655.13;;;7.17;76.87
6144;BME280;3103;49.492;8.474;2024-02-23T06:09:27;98660.00;;;7.30;77.31
6144;BME280;3103;49.492;8.474;2024-02-23T06:11:54;98663.47;;;7.21;76.70
6144;BME280;3103;49.492;8.474;2024-02-23T06:14:21;98674.94;;;7.21;78.00
6144;BME280;3103;49.492;8.474;2024-02-23T06:16:50;98676.03;;;7.30;77.17
6144;BME280;3103;49.492;8.474;2024-02-23T06:19:17;98669.28;;;7.07;77.05
6144;BME280;3103;49.492;8.474;2024-02-23T06:21:47;98676.59;;;7.32;76.95
6144;BME280;3103;49.492;8.474;2024-02-23T06:24:15;98668.34;;;7.44;76.00
6144;BME280;3103;49.492;8.474;2024-02-23T06:26:43;98674.44;;;7.29;76.57
6144;BME280;3103;49.492;8.474;2024-02-23T06:29:09;98674.75;;;7.33;76.15
6144;BME280;3103;49.492;8.474;2024-02-23T06:31:38;98676.56;;;7.27;76.25
6144;BME280;3103;49.492;8.474;2024-02-23T06:34:05;98679.00;;;7.34;76.34
6144;BME280;3103;49.492;8.474;2024-02-23T06:36:32;98671.06;;;7.49;76.02
6144;BME280;3103;49.492;8.474;2024-02-23T06:38:59;98680.69;;;7.50;76.81
6144;BME280;3103;49.492;8.474;2024-02-23T06:41:26;98686.25;;;7.43;75.40
6144;BME280;3103;49.492;8.474;2024-02-23T06:43:54;98687.28;;;7.32;76.02
6144;BME280;3103;49.492;8.474;2024-02-23T06:46:21;98686.50;;;7.37;78.43
6144;BME280;3103;49.492;8.474;2024-02-23T06:48:48;98688.81;;;7.18;76.44
6144;BME280;3103;49.492;8.474;2024-02-23T06:51:14;98690.78;;;7.38;76.19
6144;BME280;3103;49.492;8.474;2024-02-23T06:53:42;98686.97;;;7.19;76.47
6144;BME280;3103;49.492;8.474;2024-02-23T06:56:09;98684.09;;;7.35;75.39
6144;BME280;3103;49.492;8.474;2024-02-23T06:58:36;98689.72;;;7.44;76.09
6144;BME280;3103;49.492;8.474;2024-02-23T07:01:03;98677.41;;;7.38;74.99
6144;BME280;3103;49.492;8.474;2024-02-23T07:03:35;98680.56;;;7.25;74.16
6144;BME280;3103;49.492;8.474;2024-02-23T07:06:03;98681.84;;;7.17;74.04
6144;BME280;3103;49.492;8.474;2024-02-23T07:08:30;98680.78;;;7.13;73.80
6144;BME280;3103;49.492;8.474;2024-02-23T07:10:57;98693.59;;;7.11;73.80
6144;BME280;3103;49.492;8.474;2024-02-23T07:13:24;98686.34;;;7.06;73.00
6144;BME280;3103;49.492;8.474;2024-02-23T07:15:51;98691.25;;;7.30;72.88
6144;BME280;3103;49.492;8.474;2024-02-23T07:18:18;98682.63;;;7.12;73.29
6144;BME280;3103;49.492;8.474;2024-02-23T07:20:45;98684.50;;;7.12;73.24
6144;BME280;3103;49.492;8.474;2024-02-23T07:23:12;98686.38;;;7.17;73.08
6144;BME280;3103;49.492;8.474;2024-02-23T07:25:39;98686.16;;;7.18;72.52
6144;BME280;3103;49.492;8.474;2024-02-23T07:28:06;98679.41;;;7.05;72.21
6144;BME280;3103;49.492;8.474;2024-02-23T07:30:32;98684.25;;;7.13;71.79
6144;BME280;3103;49.492;8.474;2024-02-23T07:33:01;98700.53;;;7.12;71.68
6144;BME280;3103;49.492;8.474;2024-02-23T07:35:28;98699.09;;;6.94;71.58
6144;BME280;3103;49.492;8.474;2024-02-23T07:37:55;98699.03;;;6.89;71.78
6144;BME280;3103;49.492;8.474;2024-02-23T07:40:22;98699.13;;;6.99;71.32
6144;BME280;3103;49.492;8.474;2024-02-23T07:42:48;98697.78;;;6.97;71.51
6144;BME280;3103;49.492;8.474;2024-02-23T07:45:15;98689.06;;;7.17;71.08
6144;BME280;3103;49.492;8.474;2024-02-23T07:47:42;98697.56;;;7.08;71.28
6144;BME280;3103;49.492;8.474;2024-02-23T07:50:10;98694.38;;;7.11;71.28
6144;BME280;3103;49.492;8.474;2024-02-23T07:52:37;98692.25;;;7.13;70.62
6144;BME280;3103;49.492;8.474;2024-02-23T07:55:05;98688.59;;;7.30;68.84
6144;BME280;3103;49.492;8.474;2024-02-23T07:57:32;98691.63;;;7.54;68.64
6144;BME280;3103;49.492;8.474;2024-02-23T08:00:01;98685.16;;;7.34;67.96
6144;BME280;3103;49.492;8.474;2024-02-23T08:02:38;98693.38;;;7.23;68.20
6144;BME280;3103;49.492;8.474;2024-02-23T08:05:08;98702.97;;;7.19;67.97
6144;BME280;3103;49.492;8.474;2024-02-23T08:07:35;98706.47;;;7.24;68.34
6144;BME280;3103;49.492;8.474;2024-02-23T08:10:02;98708.28;;;7.13;67.52
6144;BME280;3103;49.492;8.474;2024-02-23T08:12:31;98713.34;;;7.15;68.11
6144;BME280;3103;49.492;8.474;2024-02-23T08:14:58;98712.91;;;7.28;68.57
6144;BME280;3103;49.492;8.474;2024-02-23T08:17:25;98719.38;;;7.42;67.75
6144;BME280;3103;49.492;8.474;2024-02-23T08:19:52;98716.22;;;7.51;67.93
6144;BME280;3103;49.492;8.474;2024-02-23T08:22:20;98718.63;;;7.52;66.84
6144;BME280;3103;49.492;8.474;2024-02-23T08:24:47;98716.44;;;7.44;66.93
6144;BME280;3103;49.492;8.474;2024-02-23T08:27:13;98715.09;;;7.36;67.17
6144;BME280;3103;49.492;8.474;2024-02-23T08:29:40;98710.56;;;7.42;67.10
6144;BME280;3103;49.492;8.474;2024-02-23T08:32:08;98712.47;;;7.52;66.89
6144;BME280;3103;49.492;8.474;2024-02-23T08:34:35;98720.25;;;7.53;66.90
6144;BME280;3103;49.492;8.474;2024-02-23T08:37:02;98725.16;;;7.77;66.79
6144;BME280;3103;49.492;8.474;2024-02-23T08:39:29;98715.53;;;7.86;67.09
6144;BME280;3103;49.492;8.474;2024-02-23T08:41:56;98709.66;;;7.84;65.45
6144;BME280;3103;49.492;8.474;2024-02-23T08:44:23;98713.88;;;7.64;65.82
6144;BME280;3103;49.492;8.474;2024-02-23T08:46:50;98703.50;;;7.83;66.58
6144;BME280;3103;49.492;8.474;2024-02-23T08:49:17;98705.91;;;7.80;66.34
6144;BME280;3103;49.492;8.474;2024-02-23T08:51:44;98707.53;;;7.96;65.67
6144;BME280;3103;49.492;8.474;2024-02-23T08:54:11;98706.22;;;8.09;67.84
6144;BME280;3103;49.492;8.474;2024-02-23T08:56:38;98703.78;;;7.87;65.51
6144;BME280;3103;49.492;8.474;2024-02-23T08:59:06;98706.44;;;7.87;65.93
6144;BME280;3103;49.492;8.474;2024-02-23T09:01:33;98700.84;;;7.93;65.61
6144;BME280;3103;49.492;8.474;2024-02-23T09:04:00;98704.59;;;7.97;65.69
6144;BME280;3103;49.492;8.474;2024-02-23T09:06:27;98695.56;;;8.19;65.04
6144;BME280;3103;49.492;8.474;2024-02-23T09:08:54;98701.75;;;8.40;64.26
6144;BME280;3103;49.492;8.474;2024-02-23T09:11:22;98694.78;;;8.39;64.41
6144;BME280;3103;49.492;8.474;2024-02-23T09:13:49;98688.31;;;8.14;65.53
6144;BME280;3103;49.492;8.474;2024-02-23T09:16:15;98695.25;;;8.15;64.81
6144;BME280;3103;49.492;8.474;2024-02-23T09:18:42;98681.94;;;8.66;63.79
6144;BME280;3103;49.492;8.474;2024-02-23T09:21:09;98680.72;;;9.33;62.95
6144;BME280;3103;49.492;8.474;2024-02-23T09:23:36;98682.91;;;9.21;61.13
6144;BME280;3103;49.492;8.474;2024-02-23T09:26:08;98670.38;;;8.96;61.15
6144;BME280;3103;49.492;8.474;2024-02-23T09:28:37;98666.94;;;8.80;61.73
6144;BME280;3103;49.492;8.474;2024-02-23T09:31:03;98664.44;;;9.19;60.57
6144;BME280;3103;49.492;8.474;2024-02-23T09:33:31;98664.59;;;9.48;59.59
6144;BME280;3103;49.492;8.474;2024-02-23T09:35:58;98661.34;;;9.51;58.51
6144;BME280;3103;49.492;8.474;2024-02-23T09:38:25;98673.25;;;9.85;59.43
6144;BME280;3103;49.492;8.474;2024-02-23T09:40:52;98684.66;;;10.05;56.41
6144;BME280;3103;49.492;8.474;2024-02-23T09:43:22;98682.94;;;9.06;59.40
6144;BME280;3103;49.492;8.474;2024-02-23T09:45:52;98684.56;;;8.97;61.38
6144;BME280;3103;49.492;8.474;2024-02-23T09:48:20;98682.41;;;8.99;61.87
6144;BME280;3103;49.492;8.474;2024-02-23T09:50:49;98687.81;;;8.83;62.66
6144;BME280;3103;49.492;8.474;2024-02-23T09:53:16;98678.66;;;9.00;61.99
6144;BME280;3103;49.492;8.474;2024-02-23T09:55:44;98680.28;;;9.06;61.55
6144;BME280;3103;49.492;8.474;2024-02-23T09:58:13;98689.63;;;9.18;61.58
6144;BME280;3103;49.492;8.474;2024-02-23T10:00:43;98684.81;;;9.10;63.08
6144;BME280;3103;49.492;8.474;2024-02-23T10:03:10;98681.34;;;9.05;62.45
6144;BME280;3103;49.492;8.474;2024-02-23T10:05:37;98672.81;;;8.82;63.04
6144;BME280;3103;49.492;8.474;2024-02-23T10:08:08;98681.81;;;9.32;62.75
6144;BME280;3103;49.492;8.474;2024-02-23T10:10:37;98678.56;;;9.95;59.99
6144;BME280;3103;49.492;8.474;2024-02-23T10:13:05;98679.25;;;10.10;60.54
6144;BME280;3103;49.492;8.474;2024-02-23T10:15:32;98682.03;;;10.00;61.03
6144;BME280;3103;49.492;8.474;2024-02-23T10:17:59;98673.91;;;9.61;60.82
6144;BME280;3103;49.492;8.474;2024-02-23T10:20:26;98671.03;;;9.42;61.15
6144;BME280;3103;49.492;8.474;2024-02-23T10:22:54;98663.66;;;8.99;61.97
6144;BME280;3103;49.492;8.474;2024-02-23T10:25:21;98659.34;;;9.13;61.50
6144;BME280;3103;49.492;8.474;2024-02-23T10:27:48;98664.63;;;9.38;61.43
6144;BME280;3103;49.492;8.474;2024-02-23T10:30:15;98675.78;;;9.56;61.63
6144;BME280;3103;49.492;8.474;2024-02-23T10:32:42;98673.66;;;9.58;61.57
6144;BME280;3103;49.492;8.474;2024-02-23T10:35:13;98668.13;;;9.29;62.20
6144;BME280;3103;49.492;8.474;2024-02-23T10:37:44;98668.84;;;9.55;62.28
6144;BME280;3103;49.492;8.474;2024-02-23T10:40:16;98667.50;;;9.52;61.60
6144;BME280;3103;49.492;8.474;2024-02-23T10:42:44;98656.66;;;9.77;61.73
6144;BME280;3103;49.492;8.474;2024-02-23T10:45:18;98662.91;;;9.63;62.16
6144;BME280;3103;49.492;8.474;2024-02-23T10:47:45;98656.81;;;9.42;60.55
6144;BME280;3103;49.492;8.474;2024-02-23T10:50:14;98660.78;;;9.55;60.89
6144;BME280;3103;49.492;8.474;2024-02-23T10:52:42;98656.25;;;9.50;60.46
6144;BME280;3103;49.492;8.474;2024-02-23T10:55:10;98653.97;;;9.13;60.56
6144;BME280;3103;49.492;8.474;2024-02-23T10:57:37;98644.81;;;9.34;61.24
6144;BME280;3103;49.492;8.474;2024-02-23T11:00:05;98651.25;;;9.33;61.86
6144;BME280;3103;49.492;8.474;2024-02-23T11:02:40;98647.91;;;9.62;60.94
6144;BME280;3103;49.492;8.474;2024-02-23T11:05:08;98639.13;;;9.46;62.24
6144;BME280;3103;49.492;8.474;2024-02-23T11:07:40;98649.09;;;9.85;61.68
6144;BME280;3103;49.492;8.474;2024-02-23T11:10:07;98648.84;;;9.86;61.15
6144;BME280;3103;49.492;8.474;2024-02-23T11:12:35;98648.13;;;10.09;60.13
6144;BME280;3103;49.492;8.474;2024-02-23T11:15:04;98645.66;;;9.79;60.59
6144;BME280;3103;49.492;8.474;2024-02-23T11:17:33;98644.00;;;9.83;60.68
6144;BME280;3103;49.492;8.474;2024-02-23T11:20:05;98643.72;;;9.85;61.42
6144;BME280;3103;49.492;8.474;2024-02-23T11:22:34;98645.06;;;9.87;60.40
6144;BME280;3103;49.492;8.474;2024-02-23T11:25:07;98642.97;;;9.79;60.58
6144;BME280;3103;49.492;8.474;2024-02-23T11:27:38;98649.53;;;10.02;60.22
6144;BME280;3103;49.492;8.474;2024-02-23T11:30:09;98639.91;;;10.01;60.92
6144;BME280;3103;49.492;8.474;2024-02-23T11:32:39;98639.63;;;9.97;60.80
6144;BME280;3103;49.492;8.474;2024-02-23T11:35:11;98647.28;;;10.19;59.06
6144;BME280;3103;49.492;8.474;2024-02-23T11:37:57;98642.41;;;10.55;59.81
6144;BME280;3103;49.492;8.474;2024-02-23T11:40:30;98635.22;;;10.51;57.69
6144;BME280;3103;49.492;8.474;2024-02-23T11:42:58;98633.97;;;10.43;56.84
6144;BME280;3103;49.492;8.474;2024-02-23T11:45:28;98647.41;;;10.67;57.04
6144;BME280;3103;49.492;8.474;2024-02-23T11:47:55;98648.03;;;10.30;57.82
6144;BME280;3103;49.492;8.474;2024-02-23T11:50:22;98642.75;;;10.09;59.21
6144;BME280;3103;49.492;8.474;2024-02-23T11:52:49;98643.38;;;9.96;58.14
6144;BME280;3103;49.492;8.474;2024-02-23T11:55:21;98637.84;;;9.88;59.16
6144;BME280;3103;49.492;8.474;2024-02-23T11:57:51;98635.66;;;9.90;59.48
6144;BME280;3103;49.492;8.474;2024-02-23T12:00:31;98632.25;;;9.79;60.13
6144;BME280;3103;49.492;8.474;2024-02-23T12:02:58;98643.72;;;9.90;60.77
6144;BME280;3103;49.492;8.474;2024-02-23T12:05:26;98637.84;;;9.82;63.03
6144;BME280;3103;49.492;8.474;2024-02-23T12:07:54;98630.88;;;9.81;63.82
6144;BME280;3103;49.492;8.474;2024-02-23T12:10:22;98642.13;;;9.89;63.87
6144;BME280;3103;49.492;8.474;2024-02-23T12:12:49;98643.91;;;9.98;63.32
6144;BME280;3103;49.492;8.474;2024-02-23T12:15:16;98640.13;;;10.04;61.61
6144;BME280;3103;49.492;8.474;2024-02-23T12:17:49;98635.22;;;10.11;61.14
6144;BME280;3103;49.492;8.474;2024-02-23T12:20:17;98626.84;;;10.23;60.16
6144;BME280;3103;49.492;8.474;2024-02-23T12:22:44;98632.56;;;10.11;59.26
6144;BME280;3103;49.492;8.474;2024-02-23T12:25:12;98636.66;;;9.99;59.69
6144;BME280;3103;49.492;8.474;2024-02-23T12:27:40;98635.44;;;9.86;61.09
6144;BME280;3103;49.492;8.474;2024-02-23T12:30:16;98635.59;;;9.56;62.98
6144;BME280;3103;49.492;8.474;2024-02-23T12:32:44;98635.13;;;9.43;66.06
6144;BME280;3103;49.492;8.474;2024-02-23T12:35:12;98635.53;;;9.66;69.22
6144;BME280;3103;49.492;8.474;2024-02-23T12:37:40;98640.81;;;9.81;68.32
6144;BME280;3103;49.492;8.474;2024-02-23T12:40:11;98645.22;;;10.06;66.76
6144;BME280;3103;49.492;8.474;2024-02-23T12:42:38;98638.03;;;9.96;64.87
6144;BME280;3103;49.492;8.474;2024-02-23T12:45:05;98647.28;;;9.75;64.89
6144;BME280;3103;49.492;8.474;2024-02-23T12:47:32;98638.53;;;10.03;65.94
6144;BME280;3103;49.492;8.474;2024-02-23T12:49:59;98644.53;;;9.85;65.05
6144;BME280;3103;49.492;8.474;2024-02-23T12:52:26;98629.31;;;9.75;66.16
6144;BME280;3103;49.492;8.474;2024-02-23T12:54:53;98623.13;;;9.80;66.34
6144;BME280;3103;49.492;8.474;2024-02-23T12:57:20;98625.78;;;9.80;66.25
6144;BME280;3103;49.492;8.474;2024-02-23T12:59:47;98620.84;;;9.97;65.64
6144;BME280;3103;49.492;8.474;2024-02-23T13:02:14;98626.38;;;10.11;64.89
6144;BME280;3103;49.492;8.474;2024-02-23T13:04:41;98619.63;;;10.19;64.32
6144;BME280;3103;49.492;8.474;2024-02-23T13:07:10;98618.59;;;10.15;63.49
6144;BME280;3103;49.492;8.474;2024-02-23T13:09:37;98621.66;;;9.98;64.23
6144;BME280;3103;49.492;8.474;2024-02-23T13:12:04;98614.38;;;10.03;64.48
6144;BME280;3103;49.492;8.474;2024-02-23T13:14:31;98621.31;;;10.09;63.97
6144;BME280;3103;49.492;8.474;2024-02-23T13:16:57;98622.28;;;10.24;63.94
6144;BME280;3103;49.492;8.474;2024-02-23T13:19:24;98613.00;;;10.45;64.12
6144;BME280;3103;49.492;8.474;2024-02-23T13:21:51;98607.47;;;10.60;62.91
6144;BME280;3103;49.492;8.474;2024-02-23T13:24:20;98605.63;;;10.85;60.01
6144;BME280;3103;49.492;8.474;2024-02-23T13:26:47;98602.19;;;11.03;59.56
6144;BME280;3103;49.492;8.474;2024-02-23T13:29:14;98603.56;;;10.77;56.67
6144;BME280;3103;49.492;8.474;2024-02-23T13:31:41;98607.28;;;10.52;57.57
6144;BME280;3103;49.492;8.474;2024-02-23T13:34:08;98612.00;;;10.36;58.08